sensor_id;sensor_type;location;lat;lon;timestamp;P1;durP1;ratioP1;P2;durP2;ratioP2
33188;SDS011;52601;53.070;10.600;2022-10-30T15:03:14;5.05;;;1.90;;
33188;SDS011;52601;53.070;10.600;2022-10-30T15:55:19;6.68;;;2.08;;
33188;SDS011;52601;53.070;10.600;2022-10-30T15:58:12;9.00;;;2.90;;
33188;SDS011;52601;53.070;10.600;2022-10-30T16:01:01;4.82;;;2.03;;
33188;SDS011;52601;53.070;10.600;2022-10-30T16:03:51;6.35;;;2.40;;
33188;SDS011;52601;53.070;10.600;2022-10-30T16:06:37;6.55;;;2.70;;
33188;SDS011;52601;53.070;10.600;2022-10-30T16:09:23;12.27;;;3.05;;
33188;SDS011;52601;53.070;10.600;2022-10-30T16:12:10;6.63;;;2.75;;
33188;SDS011;52601;53.070;10.600;2022-10-30T16:14:57;5.10;;;2.20;;
33188;SDS011;52601;53.070;10.600;2022-10-30T16:17:46;5.13;;;2.50;;
33188;SDS011;52601;53.070;10.600;2022-10-30T16:20:38;14.05;;;3.22;;
33188;SDS011;52601;53.070;10.600;2022-10-30T16:23:26;9.68;;;2.90;;
33188;SDS011;52601;53.070;10.600;2022-10-30T16:26:32;11.75;;;2.75;;
33188;SDS011;52601;53.070;10.600;2022-10-30T16:29:22;8.52;;;2.35;;
33188;SDS011;52601;53.070;10.600;2022-10-30T16:32:19;9.68;;;2.30;;
33188;SDS011;52601;53.070;10.600;2022-10-30T16:35:08;5.32;;;2.40;;
33188;SDS011;52601;53.070;10.600;2022-10-30T16:37:55;7.20;;;2.38;;
33188;SDS011;52601;53.070;10.600;2022-10-30T16:40:56;3.72;;;2.10;;
33188;SDS011;52601;53.070;10.600;2022-10-30T16:43:43;6.70;;;2.80;;
33188;SDS011;52601;53.070;10.600;2022-10-30T16:46:55;6.03;;;3.00;;
33188;SDS011;52601;53.070;10.600;2022-10-30T16:50:00;4.97;;;2.40;;
33188;SDS011;52601;53.070;10.600;2022-10-30T16:52:50;5.57;;;2.37;;
33188;SDS011;52601;53.070;10.600;2022-10-30T16:55:35;5.90;;;2.60;;
33188;SDS011;52601;53.070;10.600;2022-10-30T16:58:23;7.50;;;2.70;;
33188;SDS011;52601;53.070;10.600;2022-10-30T17:01:11;7.43;;;2.45;;
33188;SDS011;52601;53.070;10.600;2022-10-30T17:03:58;8.20;;;2.67;;
33188;SDS011;52601;53.070;10.600;2022-10-30T17:06:44;5.80;;;2.57;;
33188;SDS011;52601;53.070;10.600;2022-10-30T17:09:33;9.15;;;2.75;;
33188;SDS011;52601;53.070;10.600;2022-10-30T17:12:24;9.80;;;2.90;;
33188;SDS011;52601;53.070;10.600;2022-10-30T17:15:11;14.73;;;2.50;;
33188;SDS011;52601;53.070;10.600;2022-10-30T17:18:09;6.57;;;2.75;;
33188;SDS011;52601;53.070;10.600;2022-10-30T17:21:01;8.05;;;2.83;;
33188;SDS011;52601;53.070;10.600;2022-10-30T17:23:54;8.15;;;3.13;;
33188;SDS011;52601;53.070;10.600;2022-10-30T17:26:42;8.13;;;2.65;;
33188;SDS011;52601;53.070;10.600;2022-10-30T17:32:40;9.30;;;2.63;;
33188;SDS011;52601;53.070;10.600;2022-10-30T17:35:27;6.15;;;2.53;;
33188;SDS011;52601;53.070;10.600;2022-10-30T17:38:12;5.20;;;2.78;;
33188;SDS011;52601;53.070;10.600;2022-10-30T17:40:58;8.98;;;3.28;;
33188;SDS011;52601;53.070;10.600;2022-10-30T17:43:47;8.18;;;2.70;;
33188;SDS011;52601;53.070;10.600;2022-10-30T17:46:35;9.05;;;2.80;;
33188;SDS011;52601;53.070;10.600;2022-10-30T17:49:22;7.03;;;2.38;;
33188;SDS011;52601;53.070;10.600;2022-10-30T17:52:11;8.43;;;2.77;;
33188;SDS011;52601;53.070;10.600;2022-10-30T17:54:59;7.15;;;2.35;;
33188;SDS011;52601;53.070;10.600;2022-10-30T17:57:46;4.80;;;2.40;;
33188;SDS011;52601;53.070;10.600;2022-10-30T18:00:31;5.63;;;2.45;;
33188;SDS011;52601;53.070;10.600;2022-10-30T18:03:17;8.93;;;3.03;;
33188;SDS011;52601;53.070;10.600;2022-10-30T18:06:02;6.82;;;2.55;;
33188;SDS011;52601;53.070;10.600;2022-10-30T18:08:49;7.90;;;3.20;;
33188;SDS011;52601;53.070;10.600;2022-10-30T18:11:36;6.00;;;2.70;;
33188;SDS011;52601;53.070;10.600;2022-10-30T18:14:22;10.27;;;3.17;;
33188;SDS011;52601;53.070;10.600;2022-10-30T18:17:08;7.97;;;3.67;;
33188;SDS011;52601;53.070;10.600;2022-10-30T18:19:54;6.82;;;2.83;;
33188;SDS011;52601;53.070;10.600;2022-10-30T18:22:40;8.53;;;3.57;;
33188;SDS011;52601;53.070;10.600;2022-10-30T18:25:32;8.05;;;3.78;;
33188;SDS011;52601;53.070;10.600;2022-10-30T18:28:19;10.50;;;4.63;;
33188;SDS011;52601;53.070;10.600;2022-10-30T18:31:05;9.88;;;5.45;;
33188;SDS011;52601;53.070;10.600;2022-10-30T18:33:50;11.38;;;5.38;;
33188;SDS011;52601;53.070;10.600;2022-10-30T18:36:36;9.15;;;5.00;;
33188;SDS011;52601;53.070;10.600;2022-10-30T18:39:22;10.23;;;4.78;;
33188;SDS011;52601;53.070;10.600;2022-10-30T18:42:07;8.70;;;4.20;;
33188;SDS011;52601;53.070;10.600;2022-10-30T18:44:53;9.55;;;4.88;;
33188;SDS011;52601;53.070;10.600;2022-10-30T18:47:38;8.77;;;4.47;;
33188;SDS011;52601;53.070;10.600;2022-10-30T18:50:24;13.70;;;4.33;;
33188;SDS011;52601;53.070;10.600;2022-10-30T18:53:11;8.68;;;3.88;;
33188;SDS011;52601;53.070;10.600;2022-10-30T18:56:00;10.73;;;3.50;;
33188;SDS011;52601;53.070;10.600;2022-10-30T18:58:46;10.75;;;3.55;;
33188;SDS011;52601;53.070;10.600;2022-10-30T19:01:31;10.85;;;2.55;;
33188;SDS011;52601;53.070;10.600;2022-10-30T19:04:18;8.77;;;2.80;;
33188;SDS011;52601;53.070;10.600;2022-10-30T19:07:07;6.07;;;2.90;;
33188;SDS011;52601;53.070;10.600;2022-10-30T19:09:52;5.80;;;2.97;;
33188;SDS011;52601;53.070;10.600;2022-10-30T19:12:39;5.25;;;2.78;;
33188;SDS011;52601;53.070;10.600;2022-10-30T19:15:46;7.57;;;2.78;;
33188;SDS011;52601;53.070;10.600;2022-10-30T19:18:39;9.00;;;3.05;;
33188;SDS011;52601;53.070;10.600;2022-10-30T19:21:24;6.53;;;3.30;;
33188;SDS011;52601;53.070;10.600;2022-10-30T19:24:13;6.90;;;2.50;;
33188;SDS011;52601;53.070;10.600;2022-10-30T19:26:59;7.27;;;2.53;;
33188;SDS011;52601;53.070;10.600;2022-10-30T19:29:45;6.53;;;2.40;;
33188;SDS011;52601;53.070;10.600;2022-10-30T19:32:30;9.63;;;3.08;;
33188;SDS011;52601;53.070;10.600;2022-10-30T19:35:16;12.52;;;2.75;;
33188;SDS011;52601;53.070;10.600;2022-10-30T19:38:03;7.20;;;3.27;;
33188;SDS011;52601;53.070;10.600;2022-10-30T19:40:52;9.73;;;3.17;;
33188;SDS011;52601;53.070;10.600;2022-10-30T19:43:38;5.82;;;3.08;;
33188;SDS011;52601;53.070;10.600;2022-10-30T19:46:23;7.03;;;3.50;;
33188;SDS011;52601;53.070;10.600;2022-10-30T19:49:16;9.98;;;3.78;;
33188;SDS011;52601;53.070;10.600;2022-10-30T19:52:03;11.05;;;3.22;;
33188;SDS011;52601;53.070;10.600;2022-10-30T19:54:51;7.40;;;2.90;;
33188;SDS011;52601;53.070;10.600;2022-10-30T19:57:36;8.43;;;3.37;;
33188;SDS011;52601;53.070;10.600;2022-10-30T20:00:23;13.90;;;3.27;;
33188;SDS011;52601;53.070;10.600;2022-10-30T20:03:13;8.85;;;3.03;;
33188;SDS011;52601;53.070;10.600;2022-10-30T20:05:59;7.05;;;2.70;;
33188;SDS011;52601;53.070;10.600;2022-10-30T20:08:45;6.03;;;3.15;;
33188;SDS011;52601;53.070;10.600;2022-10-30T20:11:31;5.80;;;2.50;;
33188;SDS011;52601;53.070;10.600;2022-10-30T20:14:16;5.32;;;2.78;;
33188;SDS011;52601;53.070;10.600;2022-10-30T20:17:01;5.50;;;2.97;;
33188;SDS011;52601;53.070;10.600;2022-10-30T20:19:47;6.30;;;2.95;;
33188;SDS011;52601;53.070;10.600;2022-10-30T20:22:32;6.28;;;2.80;;
33188;SDS011;52601;53.070;10.600;2022-10-30T20:25:18;8.93;;;2.63;;
33188;SDS011;52601;53.070;10.600;2022-10-30T20:28:20;7.78;;;2.90;;
33188;SDS011;52601;53.070;10.600;2022-10-30T20:31:09;4.45;;;2.38;;
33188;SDS011;52601;53.070;10.600;2022-10-30T20:33:56;6.03;;;2.95;;
33188;SDS011;52601;53.070;10.600;2022-10-30T20:36:41;4.55;;;2.63;;
33188;SDS011;52601;53.070;10.600;2022-10-30T20:39:27;3.45;;;1.92;;
33188;SDS011;52601;53.070;10.600;2022-10-30T20:42:12;3.33;;;2.05;;
33188;SDS011;52601;53.070;10.600;2022-10-30T20:45:00;4.13;;;2.50;;
33188;SDS011;52601;53.070;10.600;2022-10-30T20:47:46;4.10;;;2.30;;
33188;SDS011;52601;53.070;10.600;2022-10-30T20:50:32;2.63;;;2.10;;
33188;SDS011;52601;53.070;10.600;2022-10-30T20:53:18;7.20;;;2.30;;
33188;SDS011;52601;53.070;10.600;2022-10-30T20:56:03;3.37;;;2.10;;
33188;SDS011;52601;53.070;10.600;2022-10-30T20:58:49;4.43;;;2.00;;
33188;SDS011;52601;53.070;10.600;2022-10-30T21:01:35;5.65;;;2.40;;
33188;SDS011;52601;53.070;10.600;2022-10-30T21:04:21;11.32;;;2.75;;
33188;SDS011;52601;53.070;10.600;2022-10-30T21:07:06;6.18;;;2.78;;
33188;SDS011;52601;53.070;10.600;2022-10-30T21:09:51;7.22;;;3.33;;
33188;SDS011;52601;53.070;10.600;2022-10-30T21:12:37;6.95;;;3.63;;
33188;SDS011;52601;53.070;10.600;2022-10-30T21:15:22;7.13;;;3.60;;
33188;SDS011;52601;53.070;10.600;2022-10-30T21:18:08;9.40;;;3.88;;
33188;SDS011;52601;53.070;10.600;2022-10-30T21:21:05;6.10;;;3.58;;
33188;SDS011;52601;53.070;10.600;2022-10-30T21:23:52;9.18;;;4.10;;
33188;SDS011;52601;53.070;10.600;2022-10-30T21:26:38;7.97;;;3.87;;
33188;SDS011;52601;53.070;10.600;2022-10-30T21:29:24;7.30;;;4.07;;
33188;SDS011;52601;53.070;10.600;2022-10-30T21:32:10;5.55;;;3.40;;
33188;SDS011;52601;53.070;10.600;2022-10-30T21:34:56;6.07;;;3.25;;
33188;SDS011;52601;53.070;10.600;2022-10-30T21:37:41;4.53;;;2.90;;
33188;SDS011;52601;53.070;10.600;2022-10-30T21:40:27;5.05;;;2.85;;
33188;SDS011;52601;53.070;10.600;2022-10-30T21:43:12;6.70;;;3.25;;
33188;SDS011;52601;53.070;10.600;2022-10-30T21:45:57;27.85;;;4.15;;
33188;SDS011;52601;53.070;10.600;2022-10-30T21:48:43;3.38;;;2.25;;
33188;SDS011;52601;53.070;10.600;2022-10-30T21:51:28;8.80;;;3.53;;
33188;SDS011;52601;53.070;10.600;2022-10-30T21:54:14;3.85;;;2.60;;
33188;SDS011;52601;53.070;10.600;2022-10-30T21:57:00;5.07;;;3.05;;
33188;SDS011;52601;53.070;10.600;2022-10-30T21:59:45;4.65;;;3.38;;
33188;SDS011;52601;53.070;10.600;2022-10-30T22:02:31;6.60;;;3.75;;
33188;SDS011;52601;53.070;10.600;2022-10-30T22:05:16;7.27;;;3.53;;
